Terminal Aerodrome Forecast
Issued by NWS

Home | Current Version | Previous Version | Text Only | Print | Product List | Glossary Off
Versions: 1 2 3 4 5 6 7 8 9 10 11 12 13 14 15 16 17 18 19 20 21 22

000
FTUS43 KGRB 170500
TAFCWA
TAF
KCWA 170522Z 1706/1806 32013G16KT P6SM SCT019 OVC026
      TEMPO 1706/1710 BKN019 OVC026
     FM171400 30010G17KT P6SM SCT015 OVC035
     FM171800 30009KT P6SM SCT029 OVC040
     FM180000 33005KT P6SM BKN050
     FM180300 34004KT P6SM SCT050
      AMD LTD TO CLD VIS AND WIND TIL 171200=

USA.gov is the U.S. government's official web portal to all federal, state and local government web resources and services.